Terminal Aerodrome Forecast
Issued by NWS

Home | Current Version | Previous Version | Text Only | Print | Product List | Glossary On
Versions: 1 2 3 4 5 6 7 8 9 10 11 12 13 14 15 16 17 18 19 20 21
153
FTUS42 KKEY 252332
TAFMTH
TAF
KMTH 252332Z 2600/2624 07012G19KT P6SM FEW022
     FM261200 07010KT P6SM FEW024=

USA.gov is the U.S. government's official web portal to all federal, state and local government web resources and services.